Bookmark and Share
Track history (hours):
 

John H.

More information available from US FCC via Universal Licensing System and Coast Guard Vessel Documentation Center.

Last reported at 2014-Apr-16 18:33 UTC. Time now 2014-Apr-16 19:14 UTC.
Position N 41°21' W 072°06'.

Length 70 m.

Type: Passenger vessel. MMSI: 366934890.

NotesDate/timePositionNaut miles runAvg speedWind from/ knotsBaromVisibWave heightAir tempDewpointWater temp
2014-Apr-16 18:33N 41°21' W 072°06'10 9.5
2014-Apr-16 17:33N 41°13' W 072°11'4 4.4
2014-Apr-16 16:33N 41°09' W 072°14'8 8.2
2014-Apr-16 15:34N 41°16' W 072°08'6 5.8
2014-Apr-16 14:33N 41°21' W 072°05'1110.6
2014-Apr-16 13:34N 41°12' W 072°12'3 3.3
2014-Apr-16 12:34N 41°09' W 072°14'9 9.1
2014-Apr-16 11:33N 41°16' W 072°07'5 5.1
2014-Apr-16 10:33N 41°21' W 072°06'0 0.0
2014-Apr-16 00:34N 41°21' W 072°06'9 9.1
2014-Apr-15 23:34N 41°13' W 072°10'5 4.8
2014-Apr-15 22:33N 41°09' W 072°14'9 8.5
2014-Apr-15 21:33N 41°16' W 072°08'6 5.5
2014-Apr-15 20:33N 41°21' W 072°06'9 9.3
2014-Apr-15 19:34N 41°13' W 072°12'4 4.3
2014-Apr-15 18:34N 41°09' W 072°14'9 9.2
2014-Apr-15 17:33N 41°16' W 072°06'5 4.8
2014-Apr-15 16:33N 41°21' W 072°06'9 8.8
2014-Apr-15 15:33N 41°13' W 072°11'5 5.1
2014-Apr-15 14:33N 41°09' W 072°14'8 4.2
2014-Apr-15 12:34N 41°16' W 072°08'6 5.5
2014-Apr-15 11:34N 41°21' W 072°06'1010.0
2014-Apr-15 10:34N 41°12' W 072°11'4 3.9
2014-Apr-15 09:34N 41°09' W 072°14'0 0.0
2014-Apr-14 23:34N 41°09' W 072°14'8 8.4
2014-Apr-14 22:34N 41°16' W 072°08'6 5.7
2014-Apr-14 21:34N 41°21' W 072°06'8 8.4
2014-Apr-14 20:34N 41°14' W 072°10'6 5.6
2014-Apr-14 19:34N 41°09' W 072°14'1010.1
2014-Apr-14 18:34N 41°17' W 072°06'4 4.2
2014-Apr-14 17:34N 41°21' W 072°06'8 8.4
2014-Apr-14 16:34N 41°13' W 072°09'6 5.6
2014-Apr-14 15:32N 41°09' W 072°14'8 8.6
2014-Apr-14 14:34N 41°16' W 072°07'6 5.7
2014-Apr-14 13:34N 41°21' W 072°06'14 6.9
2014-Apr-14 11:34N 41°09' W 072°14'8 8.4
2014-Apr-14 10:34N 41°16' W 072°08'6 5.6
2014-Apr-14 09:34N 41°21' W 072°06'5 0.4
2014-Apr-13 22:30N 41°17' W 072°06'3 2.8
2014-Apr-13 21:16N 41°20' W 072°05'912.1
2014-Apr-13 20:33N 41°12' W 072°11'4 4.0
2014-Apr-13 19:31N 41°09' W 072°14'8 8.5
2014-Apr-13 18:33N 41°16' W 072°08'6 5.9
2014-Apr-13 17:34N 41°21' W 072°06'9 8.8
2014-Apr-13 16:34N 41°13' W 072°10'5 5.2
2014-Apr-13 15:33N 41°09' W 072°14'9 8.7
2014-Apr-13 14:34N 41°16' W 072°07'5 5.4
2014-Apr-13 13:33N 41°21' W 072°06'8 8.4
2014-Apr-13 12:33N 41°14' W 072°10'5 5.5
2014-Apr-13 11:33N 41°09' W 072°14'0 0.0
2014-Apr-13 00:23N 41°09' W 072°14'810.0
2014-Apr-12 23:33N 41°16' W 072°08'6 5.8
2014-Apr-12 22:34N 41°21' W 072°06'9 9.3
2014-Apr-12 21:34N 41°13' W 072°11'5 4.6
2014-Apr-12 20:33N 41°09' W 072°14'8 8.1
2014-Apr-12 19:33N 41°16' W 072°08'6 5.9
2014-Apr-12 18:33N 41°21' W 072°06'9 8.8
2014-Apr-12 17:33N 41°13' W 072°10'5 5.3
2014-Apr-12 16:34N 41°09' W 072°14'9 8.5
2014-Apr-12 15:33N 41°16' W 072°07'6 5.6
2014-Apr-12 14:33N 41°21' W 072°06'10 9.6
2014-Apr-12 13:33N 41°12' W 072°10'4 4.4
2014-Apr-12 12:33N 41°09' W 072°14'8 8.1
2014-Apr-12 11:34N 41°16' W 072°08'6 5.9
2014-Apr-12 10:33N 41°21' W 072°06'0 0.0
2014-Apr-12 00:19N 41°21' W 072°05'911.6
2014-Apr-11 23:33N 41°13' W 072°10'5 4.9
2014-Apr-11 22:33N 41°09' W 072°14'8 8.1
2014-Apr-11 21:33N 41°16' W 072°08'6 5.9
2014-Apr-11 20:33N 41°21' W 072°06'9 9.3
2014-Apr-11 19:33N 41°13' W 072°11'5 4.6
2014-Apr-11 18:33N 41°09' W 072°14'9 8.8
2014-Apr-11 17:33N 41°16' W 072°07'5 5.3
2014-Apr-11 16:33N 41°21' W 072°06'10 9.9
2014-Apr-11 15:33N 41°12' W 072°11'4 4.0
2014-Apr-11 14:33N 41°09' W 072°14'10 9.6
2014-Apr-11 13:33N 41°17' W 072°06'5 4.6
2014-Apr-11 12:33N 41°21' W 072°06'9 9.1
2014-Apr-11 11:32N 41°13' W 072°11'4 4.6
2014-Apr-11 10:33N 41°09' W 072°14'0 0.0
2014-Apr-11 00:33N 41°09' W 072°14'9 8.6
2014-Apr-10 23:34N 41°16' W 072°07'5 5.4
2014-Apr-10 22:34N 41°21' W 072°06'9 8.9
2014-Apr-10 21:33N 41°13' W 072°10'5 5.0
2014-Apr-10 20:33N 41°09' W 072°14'8 8.5
2014-Apr-10 19:33N 41°16' W 072°08'6 5.6
2014-Apr-10 18:34N 41°21' W 072°06'9 9.5
2014-Apr-10 17:33N 41°13' W 072°11'4 4.4
2014-Apr-10 16:33N 41°09' W 072°14'9 9.3
2014-Apr-10 15:33N 41°16' W 072°07'5 4.9
2014-Apr-10 14:34N 41°21' W 072°06'9 9.4
2014-Apr-10 13:33N 41°13' W 072°11'5 4.6
2014-Apr-10 12:33N 41°09' W 072°14'9 9.1
2014-Apr-10 11:33N 41°16' W 072°07'5 5.1
2014-Apr-10 10:33N 41°21' W 072°06'0 0.0
2014-Apr-09 12:31N 41°21' W 072°06'9 9.5
2014-Apr-09 11:34N 41°13' W 072°11'5 4.7
2014-Apr-09 10:34N 41°09' W 072°14'0 0.0
2014-Apr-09 00:30N 41°09' W 072°14'8 8.9
2014-Apr-08 23:34N 41°16' W 072°07'6 5.8
2014-Apr-08 22:33N 41°21' W 072°06'8 8.5
2014-Apr-08 21:34N 41°13' W 072°10'5 5.5
2014-Apr-08 20:33N 41°09' W 072°14'1010.1
2014-Apr-08 19:33N 41°17' W 072°06'4 4.3
2014-Apr-08 18:33N 41°21' W 072°06'8 8.4
2014-Apr-08 17:33N 41°14' W 072°10'6 5.6
2014-Apr-08 16:34N 41°09' W 072°14'8 8.2
2014-Apr-08 15:34N 41°16' W 072°08'6 5.9
2014-Apr-08 14:33N 41°21' W 072°06'9 9.2
2014-Apr-08 13:34N 41°13' W 072°10'5 4.8
2014-Apr-08 12:33N 41°09' W 072°14'10 9.7
2014-Apr-08 11:33N 41°17' W 072°06'5 4.7
2014-Apr-08 10:33N 41°21' W 072°06'0 0.0
2014-Apr-08 00:29N 41°21' W 072°06'9 9.9
2014-Apr-07 23:33N 41°13' W 072°11'5 4.7
2014-Apr-07 22:33N 41°09' W 072°14'9 9.0
2014-Apr-07 21:33N 41°16' W 072°07'5 5.1
2014-Apr-07 20:33N 41°21' W 072°06'9 9.0
2014-Apr-07 19:33N 41°13' W 072°10'4 1.9
2014-Apr-07 17:33N 41°16' W 072°07'5 5.3
2014-Apr-07 16:33N 41°21' W 072°06'9 9.0
2014-Apr-07 15:33N 41°13' W 072°10'5 4.9
2014-Apr-07 14:34N 41°09' W 072°14'9 8.9
2014-Apr-07 13:33N 41°16' W 072°07'5 5.3
2014-Apr-07 12:33N 41°21' W 072°06'8 8.5
2014-Apr-07 11:34N 41°14' W 072°10'5 5.5
2014-Apr-07 10:33N 41°09' W 072°14'0 0.0
2014-Apr-07 01:34N 41°09' W 072°14'8 7.9
2014-Apr-07 00:33N 41°15' W 072°08'6 6.2
2014-Apr-06 23:33N 41°21' W 072°06'9 8.7
2014-Apr-06 22:34N 41°13' W 072°10'5 5.2
2014-Apr-06 21:33N 41°09' W 072°14'9 9.0
2014-Apr-06 20:33N 41°16' W 072°07'5 5.2
2014-Apr-06 19:33N 41°21' W 072°06'9 8.9
2014-Apr-06 18:33N 41°13' W 072°10'  

Dump ship's entire track history

sailing weather and tide predictions

John H. — WAC6768 — position and weather